sensor_id;sensor_type;location;lat;lon;timestamp;P1;durP1;ratioP1;P2;durP2;ratioP2
53299;SDS011;39187;48.476;8.310;2023-03-03T00:00:44;42.40;;;23.97;;
53299;SDS011;39187;48.476;8.310;2023-03-03T00:03:10;49.63;;;25.07;;
53299;SDS011;39187;48.476;8.310;2023-03-03T00:05:39;40.77;;;23.30;;
53299;SDS011;39187;48.476;8.310;2023-03-03T00:08:05;51.73;;;25.83;;
53299;SDS011;39187;48.476;8.310;2023-03-03T00:10:30;44.07;;;24.77;;
53299;SDS011;39187;48.476;8.310;2023-03-03T00:12:56;42.27;;;22.70;;
53299;SDS011;39187;48.476;8.310;2023-03-03T00:15:23;49.37;;;24.90;;
53299;SDS011;39187;48.476;8.310;2023-03-03T00:17:50;52.33;;;25.77;;
53299;SDS011;39187;48.476;8.310;2023-03-03T00:23:16;40.07;;;24.00;;
53299;SDS011;39187;48.476;8.310;2023-03-03T00:25:49;39.10;;;23.07;;
53299;SDS011;39187;48.476;8.310;2023-03-03T00:30:41;43.33;;;23.53;;
53299;SDS011;39187;48.476;8.310;2023-03-03T00:33:22;38.17;;;20.90;;
53299;SDS011;39187;48.476;8.310;2023-03-03T00:35:53;32.23;;;22.77;;
53299;SDS011;39187;48.476;8.310;2023-03-03T00:38:19;46.47;;;22.50;;
53299;SDS011;39187;48.476;8.310;2023-03-03T00:40:45;45.83;;;24.63;;
53299;SDS011;39187;48.476;8.310;2023-03-03T00:45:53;39.13;;;21.20;;
53299;SDS011;39187;48.476;8.310;2023-03-03T00:50:48;49.03;;;26.53;;
53299;SDS011;39187;48.476;8.310;2023-03-03T00:53:19;45.07;;;24.70;;
53299;SDS011;39187;48.476;8.310;2023-03-03T00:55:46;41.57;;;24.83;;
53299;SDS011;39187;48.476;8.310;2023-03-03T00:58:13;44.17;;;24.63;;
53299;SDS011;39187;48.476;8.310;2023-03-03T01:00:39;43.37;;;25.53;;
53299;SDS011;39187;48.476;8.310;2023-03-03T01:03:07;54.73;;;26.60;;
53299;SDS011;39187;48.476;8.310;2023-03-03T01:05:35;54.30;;;27.10;;
53299;SDS011;39187;48.476;8.310;2023-03-03T01:08:01;44.90;;;25.80;;
53299;SDS011;39187;48.476;8.310;2023-03-03T01:10:27;46.80;;;26.30;;
53299;SDS011;39187;48.476;8.310;2023-03-03T01:12:56;46.37;;;26.03;;
53299;SDS011;39187;48.476;8.310;2023-03-03T01:15:22;43.20;;;24.20;;
53299;SDS011;39187;48.476;8.310;2023-03-03T01:17:49;45.03;;;24.77;;
53299;SDS011;39187;48.476;8.310;2023-03-03T01:20:15;42.07;;;24.43;;
53299;SDS011;39187;48.476;8.310;2023-03-03T01:22:41;38.00;;;23.03;;
53299;SDS011;39187;48.476;8.310;2023-03-03T01:25:07;42.53;;;24.73;;
53299;SDS011;39187;48.476;8.310;2023-03-03T01:27:33;59.77;;;30.17;;
53299;SDS011;39187;48.476;8.310;2023-03-03T01:30:00;57.57;;;26.60;;
53299;SDS011;39187;48.476;8.310;2023-03-03T01:32:26;43.53;;;24.17;;
53299;SDS011;39187;48.476;8.310;2023-03-03T01:34:52;37.10;;;22.07;;
53299;SDS011;39187;48.476;8.310;2023-03-03T01:37:18;49.97;;;23.53;;
53299;SDS011;39187;48.476;8.310;2023-03-03T01:39:47;42.40;;;22.63;;
53299;SDS011;39187;48.476;8.310;2023-03-03T01:42:14;64.03;;;27.77;;
53299;SDS011;39187;48.476;8.310;2023-03-03T01:44:39;46.80;;;24.60;;
53299;SDS011;39187;48.476;8.310;2023-03-03T01:47:10;47.63;;;25.77;;
53299;SDS011;39187;48.476;8.310;2023-03-03T01:49:51;44.53;;;25.60;;
53299;SDS011;39187;48.476;8.310;2023-03-03T01:52:28;55.00;;;25.87;;
53299;SDS011;39187;48.476;8.310;2023-03-03T01:55:02;53.77;;;24.30;;
53299;SDS011;39187;48.476;8.310;2023-03-03T01:57:35;55.50;;;26.77;;
53299;SDS011;39187;48.476;8.310;2023-03-03T02:00:03;50.33;;;25.57;;
53299;SDS011;39187;48.476;8.310;2023-03-03T02:02:31;50.90;;;26.03;;
53299;SDS011;39187;48.476;8.310;2023-03-03T02:04:57;51.30;;;27.00;;
53299;SDS011;39187;48.476;8.310;2023-03-03T02:07:22;55.00;;;25.70;;
53299;SDS011;39187;48.476;8.310;2023-03-03T02:09:58;59.80;;;27.60;;
53299;SDS011;39187;48.476;8.310;2023-03-03T02:15:24;48.43;;;27.17;;
53299;SDS011;39187;48.476;8.310;2023-03-03T02:17:53;57.00;;;26.40;;
53299;SDS011;39187;48.476;8.310;2023-03-03T02:23:15;48.73;;;26.97;;
53299;SDS011;39187;48.476;8.310;2023-03-03T02:25:48;53.70;;;26.00;;
53299;SDS011;39187;48.476;8.310;2023-03-03T02:28:20;54.90;;;27.77;;
53299;SDS011;39187;48.476;8.310;2023-03-03T02:30:47;54.10;;;25.90;;
53299;SDS011;39187;48.476;8.310;2023-03-03T02:33:13;42.10;;;24.93;;
53299;SDS011;39187;48.476;8.310;2023-03-03T02:35:39;54.03;;;26.73;;
53299;SDS011;39187;48.476;8.310;2023-03-03T02:40:39;51.87;;;27.83;;
53299;SDS011;39187;48.476;8.310;2023-03-03T02:43:09;44.73;;;26.03;;
53299;SDS011;39187;48.476;8.310;2023-03-03T02:45:43;40.77;;;24.90;;
53299;SDS011;39187;48.476;8.310;2023-03-03T02:48:09;62.33;;;27.20;;
53299;SDS011;39187;48.476;8.310;2023-03-03T02:50:35;65.60;;;31.83;;
53299;SDS011;39187;48.476;8.310;2023-03-03T02:53:01;52.03;;;26.93;;
53299;SDS011;39187;48.476;8.310;2023-03-03T02:55:27;55.03;;;29.57;;
53299;SDS011;39187;48.476;8.310;2023-03-03T02:57:53;54.20;;;28.37;;
53299;SDS011;39187;48.476;8.310;2023-03-03T03:00:18;59.30;;;28.13;;
53299;SDS011;39187;48.476;8.310;2023-03-03T03:02:45;57.93;;;29.37;;
53299;SDS011;39187;48.476;8.310;2023-03-03T03:05:11;64.47;;;28.23;;
53299;SDS011;39187;48.476;8.310;2023-03-03T03:07:37;49.03;;;26.00;;
53299;SDS011;39187;48.476;8.310;2023-03-03T03:10:02;54.63;;;26.17;;
53299;SDS011;39187;48.476;8.310;2023-03-03T03:12:28;53.17;;;27.90;;
53299;SDS011;39187;48.476;8.310;2023-03-03T03:14:54;50.17;;;28.43;;
53299;SDS011;39187;48.476;8.310;2023-03-03T03:17:19;61.70;;;29.97;;
53299;SDS011;39187;48.476;8.310;2023-03-03T03:19:45;51.20;;;29.17;;
53299;SDS011;39187;48.476;8.310;2023-03-03T03:22:10;57.40;;;28.40;;
53299;SDS011;39187;48.476;8.310;2023-03-03T03:24:35;60.73;;;28.90;;
53299;SDS011;39187;48.476;8.310;2023-03-03T03:27:01;59.70;;;27.33;;
53299;SDS011;39187;48.476;8.310;2023-03-03T03:29:26;65.23;;;29.30;;
53299;SDS011;39187;48.476;8.310;2023-03-03T03:31:52;56.57;;;28.90;;
53299;SDS011;39187;48.476;8.310;2023-03-03T03:34:17;60.60;;;31.30;;
53299;SDS011;39187;48.476;8.310;2023-03-03T03:36:43;58.60;;;28.23;;
53299;SDS011;39187;48.476;8.310;2023-03-03T03:39:11;57.97;;;28.70;;
53299;SDS011;39187;48.476;8.310;2023-03-03T03:41:37;58.03;;;30.53;;
53299;SDS011;39187;48.476;8.310;2023-03-03T03:44:02;45.50;;;27.50;;
53299;SDS011;39187;48.476;8.310;2023-03-03T03:46:28;58.60;;;28.77;;
53299;SDS011;39187;48.476;8.310;2023-03-03T03:48:54;59.33;;;28.60;;
53299;SDS011;39187;48.476;8.310;2023-03-03T03:51:19;56.63;;;28.83;;
53299;SDS011;39187;48.476;8.310;2023-03-03T03:53:45;54.20;;;28.97;;
53299;SDS011;39187;48.476;8.310;2023-03-03T03:56:10;62.00;;;27.77;;
53299;SDS011;39187;48.476;8.310;2023-03-03T03:58:36;47.10;;;27.23;;
53299;SDS011;39187;48.476;8.310;2023-03-03T04:01:05;58.77;;;29.93;;
53299;SDS011;39187;48.476;8.310;2023-03-03T04:03:32;57.63;;;29.03;;
53299;SDS011;39187;48.476;8.310;2023-03-03T04:05:57;67.47;;;33.33;;
53299;SDS011;39187;48.476;8.310;2023-03-03T04:08:23;52.93;;;29.67;;
53299;SDS011;39187;48.476;8.310;2023-03-03T04:10:48;63.33;;;29.10;;
53299;SDS011;39187;48.476;8.310;2023-03-03T04:13:14;49.20;;;27.10;;
53299;SDS011;39187;48.476;8.310;2023-03-03T04:15:40;63.30;;;30.17;;
53299;SDS011;39187;48.476;8.310;2023-03-03T04:18:06;61.77;;;30.33;;
53299;SDS011;39187;48.476;8.310;2023-03-03T04:20:31;58.13;;;30.20;;
53299;SDS011;39187;48.476;8.310;2023-03-03T04:22:57;56.23;;;28.87;;
53299;SDS011;39187;48.476;8.310;2023-03-03T04:25:22;51.50;;;28.63;;
53299;SDS011;39187;48.476;8.310;2023-03-03T04:27:48;52.47;;;28.40;;
53299;SDS011;39187;48.476;8.310;2023-03-03T04:30:14;58.40;;;29.97;;
53299;SDS011;39187;48.476;8.310;2023-03-03T04:32:40;71.57;;;29.40;;
53299;SDS011;39187;48.476;8.310;2023-03-03T04:35:06;59.40;;;30.50;;
53299;SDS011;39187;48.476;8.310;2023-03-03T04:37:33;55.90;;;29.73;;
53299;SDS011;39187;48.476;8.310;2023-03-03T04:39:59;57.87;;;28.40;;
53299;SDS011;39187;48.476;8.310;2023-03-03T04:42:25;56.37;;;29.63;;
53299;SDS011;39187;48.476;8.310;2023-03-03T04:44:52;58.50;;;30.70;;
53299;SDS011;39187;48.476;8.310;2023-03-03T04:47:17;55.77;;;29.47;;
53299;SDS011;39187;48.476;8.310;2023-03-03T04:49:43;53.23;;;29.13;;
53299;SDS011;39187;48.476;8.310;2023-03-03T04:52:08;63.97;;;30.20;;
53299;SDS011;39187;48.476;8.310;2023-03-03T04:54:34;54.47;;;28.17;;
53299;SDS011;39187;48.476;8.310;2023-03-03T04:57:00;55.03;;;28.67;;
53299;SDS011;39187;48.476;8.310;2023-03-03T04:59:25;64.73;;;30.93;;
53299;SDS011;39187;48.476;8.310;2023-03-03T05:01:51;53.43;;;30.10;;
53299;SDS011;39187;48.476;8.310;2023-03-03T05:04:16;55.37;;;30.30;;
53299;SDS011;39187;48.476;8.310;2023-03-03T05:06:42;65.50;;;32.10;;
53299;SDS011;39187;48.476;8.310;2023-03-03T05:09:07;52.93;;;27.80;;
53299;SDS011;39187;48.476;8.310;2023-03-03T05:11:33;59.63;;;30.03;;
53299;SDS011;39187;48.476;8.310;2023-03-03T05:13:59;61.57;;;29.80;;
53299;SDS011;39187;48.476;8.310;2023-03-03T05:16:24;63.07;;;29.90;;
53299;SDS011;39187;48.476;8.310;2023-03-03T05:18:50;64.83;;;30.97;;
53299;SDS011;39187;48.476;8.310;2023-03-03T05:21:16;54.07;;;28.53;;
53299;SDS011;39187;48.476;8.310;2023-03-03T05:23:41;54.80;;;28.07;;
53299;SDS011;39187;48.476;8.310;2023-03-03T05:26:07;65.13;;;30.73;;
53299;SDS011;39187;48.476;8.310;2023-03-03T05:28:32;56.57;;;29.90;;
53299;SDS011;39187;48.476;8.310;2023-03-03T05:30:58;56.30;;;28.50;;
53299;SDS011;39187;48.476;8.310;2023-03-03T05:33:23;63.43;;;29.07;;
53299;SDS011;39187;48.476;8.310;2023-03-03T05:35:53;56.73;;;29.53;;
53299;SDS011;39187;48.476;8.310;2023-03-03T05:38:20;53.83;;;29.57;;
53299;SDS011;39187;48.476;8.310;2023-03-03T05:40:46;56.47;;;28.70;;
53299;SDS011;39187;48.476;8.310;2023-03-03T05:43:12;57.30;;;29.80;;
53299;SDS011;39187;48.476;8.310;2023-03-03T05:45:37;50.23;;;30.03;;
53299;SDS011;39187;48.476;8.310;2023-03-03T05:48:03;68.70;;;30.87;;
53299;SDS011;39187;48.476;8.310;2023-03-03T05:50:29;53.93;;;28.00;;
53299;SDS011;39187;48.476;8.310;2023-03-03T05:52:54;54.93;;;30.00;;
53299;SDS011;39187;48.476;8.310;2023-03-03T05:55:20;51.60;;;26.90;;
53299;SDS011;39187;48.476;8.310;2023-03-03T05:57:45;54.23;;;27.83;;
53299;SDS011;39187;48.476;8.310;2023-03-03T06:00:11;66.37;;;27.43;;
53299;SDS011;39187;48.476;8.310;2023-03-03T06:02:38;54.33;;;27.40;;
53299;SDS011;39187;48.476;8.310;2023-03-03T06:05:04;46.73;;;25.17;;
53299;SDS011;39187;48.476;8.310;2023-03-03T06:07:29;51.43;;;28.47;;
53299;SDS011;39187;48.476;8.310;2023-03-03T06:09:55;46.47;;;25.10;;
53299;SDS011;39187;48.476;8.310;2023-03-03T06:12:20;55.60;;;27.10;;
53299;SDS011;39187;48.476;8.310;2023-03-03T06:14:46;49.10;;;28.03;;
53299;SDS011;39187;48.476;8.310;2023-03-03T06:17:11;47.60;;;24.40;;
53299;SDS011;39187;48.476;8.310;2023-03-03T06:19:37;44.53;;;24.23;;
53299;SDS011;39187;48.476;8.310;2023-03-03T06:22:03;47.83;;;25.67;;
53299;SDS011;39187;48.476;8.310;2023-03-03T06:24:28;49.10;;;24.40;;
53299;SDS011;39187;48.476;8.310;2023-03-03T06:26:58;49.43;;;26.60;;
53299;SDS011;39187;48.476;8.310;2023-03-03T06:29:24;50.70;;;27.80;;
53299;SDS011;39187;48.476;8.310;2023-03-03T06:31:50;60.73;;;25.97;;
53299;SDS011;39187;48.476;8.310;2023-03-03T06:34:15;54.20;;;25.43;;
53299;SDS011;39187;48.476;8.310;2023-03-03T06:36:41;49.33;;;27.37;;
53299;SDS011;39187;48.476;8.310;2023-03-03T06:39:06;48.33;;;26.90;;
53299;SDS011;39187;48.476;8.310;2023-03-03T06:41:32;50.20;;;26.53;;
53299;SDS011;39187;48.476;8.310;2023-03-03T06:43:57;53.17;;;25.60;;
53299;SDS011;39187;48.476;8.310;2023-03-03T06:46:24;48.90;;;27.33;;
53299;SDS011;39187;48.476;8.310;2023-03-03T06:48:50;55.03;;;25.87;;
53299;SDS011;39187;48.476;8.310;2023-03-03T06:51:38;45.83;;;24.83;;
53299;SDS011;39187;48.476;8.310;2023-03-03T06:54:11;52.43;;;26.30;;
53299;SDS011;39187;48.476;8.310;2023-03-03T06:56:41;52.73;;;25.50;;
53299;SDS011;39187;48.476;8.310;2023-03-03T06:59:17;49.03;;;23.93;;
53299;SDS011;39187;48.476;8.310;2023-03-03T07:01:49;46.10;;;26.03;;
53299;SDS011;39187;48.476;8.310;2023-03-03T07:06:43;52.60;;;25.73;;
53299;SDS011;39187;48.476;8.310;2023-03-03T07:09:25;41.60;;;24.30;;
53299;SDS011;39187;48.476;8.310;2023-03-03T07:11:55;47.43;;;24.93;;
53299;SDS011;39187;48.476;8.310;2023-03-03T07:14:24;43.63;;;24.40;;
53299;SDS011;39187;48.476;8.310;2023-03-03T07:16:50;47.50;;;24.43;;
53299;SDS011;39187;48.476;8.310;2023-03-03T07:19:28;58.00;;;25.20;;
53299;SDS011;39187;48.476;8.310;2023-03-03T07:21:59;48.40;;;25.23;;
53299;SDS011;39187;48.476;8.310;2023-03-03T07:24:47;40.20;;;23.60;;
53299;SDS011;39187;48.476;8.310;2023-03-03T07:29:44;50.50;;;24.70;;
53299;SDS011;39187;48.476;8.310;2023-03-03T07:32:28;47.47;;;25.63;;
53299;SDS011;39187;48.476;8.310;2023-03-03T07:35:05;43.17;;;25.47;;
53299;SDS011;39187;48.476;8.310;2023-03-03T07:37:51;48.77;;;25.93;;
53299;SDS011;39187;48.476;8.310;2023-03-03T07:45:46;41.87;;;26.03;;
53299;SDS011;39187;48.476;8.310;2023-03-03T07:50:37;56.23;;;28.20;;
53299;SDS011;39187;48.476;8.310;2023-03-03T07:53:07;70.20;;;26.80;;
53299;SDS011;39187;48.476;8.310;2023-03-03T07:55:39;46.90;;;25.60;;
53299;SDS011;39187;48.476;8.310;2023-03-03T08:03:07;46.23;;;26.33;;
53299;SDS011;39187;48.476;8.310;2023-03-03T08:05:41;55.63;;;25.93;;
53299;SDS011;39187;48.476;8.310;2023-03-03T08:11:01;54.83;;;25.23;;
53299;SDS011;39187;48.476;8.310;2023-03-03T08:16:00;53.17;;;26.10;;
53299;SDS011;39187;48.476;8.310;2023-03-03T08:18:49;46.53;;;24.07;;
53299;SDS011;39187;48.476;8.310;2023-03-03T08:23:46;57.07;;;25.33;;
53299;SDS011;39187;48.476;8.310;2023-03-03T08:26:17;49.07;;;23.47;;
53299;SDS011;39187;48.476;8.310;2023-03-03T08:28:44;43.20;;;23.60;;
53299;SDS011;39187;48.476;8.310;2023-03-03T08:31:10;45.47;;;26.30;;
53299;SDS011;39187;48.476;8.310;2023-03-03T08:33:36;44.40;;;24.03;;
53299;SDS011;39187;48.476;8.310;2023-03-03T08:36:03;53.00;;;26.77;;
53299;SDS011;39187;48.476;8.310;2023-03-03T08:38:30;45.63;;;26.80;;
53299;SDS011;39187;48.476;8.310;2023-03-03T08:40:55;50.83;;;25.60;;
53299;SDS011;39187;48.476;8.310;2023-03-03T08:43:21;48.57;;;26.23;;
53299;SDS011;39187;48.476;8.310;2023-03-03T08:45:50;49.10;;;25.17;;
53299;SDS011;39187;48.476;8.310;2023-03-03T08:48:17;52.27;;;26.37;;
53299;SDS011;39187;48.476;8.310;2023-03-03T08:50:44;53.77;;;29.10;;
53299;SDS011;39187;48.476;8.310;2023-03-03T08:53:11;47.57;;;26.23;;
53299;SDS011;39187;48.476;8.310;2023-03-03T08:55:37;45.80;;;25.97;;
53299;SDS011;39187;48.476;8.310;2023-03-03T08:58:03;51.80;;;25.80;;
53299;SDS011;39187;48.476;8.310;2023-03-03T09:00:28;65.63;;;30.80;;
53299;SDS011;39187;48.476;8.310;2023-03-03T09:02:54;49.10;;;25.93;;
53299;SDS011;39187;48.476;8.310;2023-03-03T09:05:20;52.70;;;25.40;;
53299;SDS011;39187;48.476;8.310;2023-03-03T09:07:47;54.33;;;26.10;;
53299;SDS011;39187;48.476;8.310;2023-03-03T09:10:16;46.70;;;25.73;;
53299;SDS011;39187;48.476;8.310;2023-03-03T09:12:44;43.27;;;25.50;;
53299;SDS011;39187;48.476;8.310;2023-03-03T09:15:25;43.50;;;24.50;;
53299;SDS011;39187;48.476;8.310;2023-03-03T09:17:53;49.53;;;25.80;;
53299;SDS011;39187;48.476;8.310;2023-03-03T09:23:50;55.60;;;27.43;;
53299;SDS011;39187;48.476;8.310;2023-03-03T09:25:58;44.10;;;25.53;;
53299;SDS011;39187;48.476;8.310;2023-03-03T09:28:36;47.33;;;25.50;;
53299;SDS011;39187;48.476;8.310;2023-03-03T09:31:02;45.47;;;26.60;;
53299;SDS011;39187;48.476;8.310;2023-03-03T09:33:40;41.33;;;24.73;;
53299;SDS011;39187;48.476;8.310;2023-03-03T09:38:48;47.20;;;26.57;;
53299;SDS011;39187;48.476;8.310;2023-03-03T09:50:09;49.57;;;26.57;;
53299;SDS011;39187;48.476;8.310;2023-03-03T09:53:04;51.53;;;25.93;;
53299;SDS011;39187;48.476;8.310;2023-03-03T09:55:58;48.80;;;27.07;;
53299;SDS011;39187;48.476;8.310;2023-03-03T10:06:53;49.20;;;26.07;;
53299;SDS011;39187;48.476;8.310;2023-03-03T10:12:09;41.33;;;25.73;;
53299;SDS011;39187;48.476;8.310;2023-03-03T10:45:04;45.70;;;24.63;;
53299;SDS011;39187;48.476;8.310;2023-03-03T10:49:01;46.07;;;24.60;;
53299;SDS011;39187;48.476;8.310;2023-03-03T10:51:20;46.10;;;26.30;;
53299;SDS011;39187;48.476;8.310;2023-03-03T10:53:57;42.73;;;23.13;;
53299;SDS011;39187;48.476;8.310;2023-03-03T10:56:56;50.60;;;24.57;;
53299;SDS011;39187;48.476;8.310;2023-03-03T11:02:00;41.43;;;24.10;;
53299;SDS011;39187;48.476;8.310;2023-03-03T11:20:51;43.63;;;23.33;;
53299;SDS011;39187;48.476;8.310;2023-03-03T11:29:19;42.10;;;24.40;;
53299;SDS011;39187;48.476;8.310;2023-03-03T11:31:54;39.53;;;21.10;;
53299;SDS011;39187;48.476;8.310;2023-03-03T11:34:47;40.80;;;22.00;;
53299;SDS011;39187;48.476;8.310;2023-03-03T11:37:56;34.00;;;21.23;;
53299;SDS011;39187;48.476;8.310;2023-03-03T11:40:44;42.37;;;25.50;;
53299;SDS011;39187;48.476;8.310;2023-03-03T11:45:52;41.13;;;22.93;;
53299;SDS011;39187;48.476;8.310;2023-03-03T11:48:34;53.00;;;24.87;;
53299;SDS011;39187;48.476;8.310;2023-03-03T11:51:14;39.50;;;20.83;;
53299;SDS011;39187;48.476;8.310;2023-03-03T11:54:04;39.00;;;22.87;;
53299;SDS011;39187;48.476;8.310;2023-03-03T11:56:39;43.60;;;21.77;;
53299;SDS011;39187;48.476;8.310;2023-03-03T11:59:18;29.60;;;19.93;;
53299;SDS011;39187;48.476;8.310;2023-03-03T12:02:13;39.57;;;22.70;;
53299;SDS011;39187;48.476;8.310;2023-03-03T12:14:17;33.53;;;19.73;;
53299;SDS011;39187;48.476;8.310;2023-03-03T12:16:56;37.17;;;20.20;;
53299;SDS011;39187;48.476;8.310;2023-03-03T12:22:15;25.17;;;17.33;;
53299;SDS011;39187;48.476;8.310;2023-03-03T12:27:44;30.40;;;19.00;;
53299;SDS011;39187;48.476;8.310;2023-03-03T12:36:07;29.70;;;18.93;;
53299;SDS011;39187;48.476;8.310;2023-03-03T12:48:47;40.47;;;20.97;;
53299;SDS011;39187;48.476;8.310;2023-03-03T12:57:15;33.83;;;18.77;;
53299;SDS011;39187;48.476;8.310;2023-03-03T12:59:58;30.00;;;17.37;;
53299;SDS011;39187;48.476;8.310;2023-03-03T13:05:16;30.67;;;18.50;;
53299;SDS011;39187;48.476;8.310;2023-03-03T13:13:16;23.47;;;16.77;;
53299;SDS011;39187;48.476;8.310;2023-03-03T13:16:04;22.43;;;14.43;;
53299;SDS011;39187;48.476;8.310;2023-03-03T13:18:40;23.47;;;13.17;;
53299;SDS011;39187;48.476;8.310;2023-03-03T13:27:20;18.57;;;12.03;;
53299;SDS011;39187;48.476;8.310;2023-03-03T13:32:22;24.70;;;12.43;;
53299;SDS011;39187;48.476;8.310;2023-03-03T13:34:58;20.00;;;14.13;;
53299;SDS011;39187;48.476;8.310;2023-03-03T13:37:43;25.17;;;14.17;;
53299;SDS011;39187;48.476;8.310;2023-03-03T13:45:16;28.53;;;11.80;;
53299;SDS011;39187;48.476;8.310;2023-03-03T13:47:49;19.00;;;13.40;;
53299;SDS011;39187;48.476;8.310;2023-03-03T13:53:34;25.23;;;12.40;;
53299;SDS011;39187;48.476;8.310;2023-03-03T14:01:49;18.73;;;13.20;;
53299;SDS011;39187;48.476;8.310;2023-03-03T14:07:35;27.90;;;15.43;;
53299;SDS011;39187;48.476;8.310;2023-03-03T14:10:12;20.30;;;14.63;;
53299;SDS011;39187;48.476;8.310;2023-03-03T14:18:01;26.20;;;17.50;;
53299;SDS011;39187;48.476;8.310;2023-03-03T14:20:36;25.80;;;18.43;;
53299;SDS011;39187;48.476;8.310;2023-03-03T14:23:17;30.27;;;17.40;;
53299;SDS011;39187;48.476;8.310;2023-03-03T14:28:20;27.47;;;17.83;;
53299;SDS011;39187;48.476;8.310;2023-03-03T14:30:48;23.40;;;16.97;;
53299;SDS011;39187;48.476;8.310;2023-03-03T14:33:15;34.23;;;19.10;;
53299;SDS011;39187;48.476;8.310;2023-03-03T14:38:22;29.70;;;17.77;;
53299;SDS011;39187;48.476;8.310;2023-03-03T14:41:17;27.17;;;16.47;;
53299;SDS011;39187;48.476;8.310;2023-03-03T14:49:05;35.33;;;20.23;;
53299;SDS011;39187;48.476;8.310;2023-03-03T14:51:46;25.93;;;16.60;;
53299;SDS011;39187;48.476;8.310;2023-03-03T14:54:15;28.13;;;17.90;;
53299;SDS011;39187;48.476;8.310;2023-03-03T15:00:04;21.87;;;15.10;;
53299;SDS011;39187;48.476;8.310;2023-03-03T15:05:17;27.73;;;15.80;;
53299;SDS011;39187;48.476;8.310;2023-03-03T15:07:50;33.03;;;16.70;;
53299;SDS011;39187;48.476;8.310;2023-03-03T15:10:31;23.07;;;14.80;;
53299;SDS011;39187;48.476;8.310;2023-03-03T15:15:48;33.00;;;19.00;;
53299;SDS011;39187;48.476;8.310;2023-03-03T15:18:17;31.27;;;19.30;;
53299;SDS011;39187;48.476;8.310;2023-03-03T15:20:55;32.90;;;19.17;;
53299;SDS011;39187;48.476;8.310;2023-03-03T15:26:29;38.43;;;21.67;;
53299;SDS011;39187;48.476;8.310;2023-03-03T15:32:02;31.20;;;20.10;;
53299;SDS011;39187;48.476;8.310;2023-03-03T15:34:39;30.33;;;19.37;;
53299;SDS011;39187;48.476;8.310;2023-03-03T15:42:57;30.97;;;20.70;;
53299;SDS011;39187;48.476;8.310;2023-03-03T15:45:33;29.60;;;19.00;;
53299;SDS011;39187;48.476;8.310;2023-03-03T15:53:29;28.27;;;19.60;;
53299;SDS011;39187;48.476;8.310;2023-03-03T16:04:40;37.70;;;20.20;;
53299;SDS011;39187;48.476;8.310;2023-03-03T16:10:07;30.63;;;19.80;;
53299;SDS011;39187;48.476;8.310;2023-03-03T16:12:56;31.67;;;20.33;;
53299;SDS011;39187;48.476;8.310;2023-03-03T16:15:40;38.63;;;22.73;;
53299;SDS011;39187;48.476;8.310;2023-03-03T16:29:41;36.07;;;22.03;;
53299;SDS011;39187;48.476;8.310;2023-03-03T16:35:25;32.00;;;21.93;;
53299;SDS011;39187;48.476;8.310;2023-03-03T16:40:26;44.93;;;23.97;;
53299;SDS011;39187;48.476;8.310;2023-03-03T16:43:10;40.30;;;23.20;;
53299;SDS011;39187;48.476;8.310;2023-03-03T16:45:54;37.40;;;24.10;;
53299;SDS011;39187;48.476;8.310;2023-03-03T16:54:15;35.33;;;24.37;;
53299;SDS011;39187;48.476;8.310;2023-03-03T17:05:59;41.87;;;24.83;;
53299;SDS011;39187;48.476;8.310;2023-03-03T17:22:41;39.50;;;23.70;;
53299;SDS011;39187;48.476;8.310;2023-03-03T17:25:19;47.27;;;24.83;;
53299;SDS011;39187;48.476;8.310;2023-03-03T17:36:44;40.47;;;24.10;;
53299;SDS011;39187;48.476;8.310;2023-03-03T17:56:07;40.10;;;25.30;;
53299;SDS011;39187;48.476;8.310;2023-03-03T17:59:06;48.50;;;25.93;;
53299;SDS011;39187;48.476;8.310;2023-03-03T18:15:16;42.10;;;23.77;;
53299;SDS011;39187;48.476;8.310;2023-03-03T18:17:58;43.43;;;25.00;;
53299;SDS011;39187;48.476;8.310;2023-03-03T18:22:58;52.13;;;29.40;;
53299;SDS011;39187;48.476;8.310;2023-03-03T18:25:55;54.20;;;27.20;;
53299;SDS011;39187;48.476;8.310;2023-03-03T18:28:22;43.23;;;24.93;;
53299;SDS011;39187;48.476;8.310;2023-03-03T18:31:23;50.83;;;27.90;;
53299;SDS011;39187;48.476;8.310;2023-03-03T18:34:22;47.40;;;28.50;;
53299;SDS011;39187;48.476;8.310;2023-03-03T18:37:02;57.20;;;26.90;;
53299;SDS011;39187;48.476;8.310;2023-03-03T18:39:38;52.43;;;28.30;;
53299;SDS011;39187;48.476;8.310;2023-03-03T18:44:39;56.87;;;27.40;;
53299;SDS011;39187;48.476;8.310;2023-03-03T18:47:05;49.87;;;26.77;;
53299;SDS011;39187;48.476;8.310;2023-03-03T18:52:37;57.70;;;29.47;;
53299;SDS011;39187;48.476;8.310;2023-03-03T18:55:24;47.47;;;27.03;;
53299;SDS011;39187;48.476;8.310;2023-03-03T19:03:33;57.70;;;28.20;;
53299;SDS011;39187;48.476;8.310;2023-03-03T19:06:02;41.37;;;27.53;;
53299;SDS011;39187;48.476;8.310;2023-03-03T19:08:50;47.97;;;27.30;;
53299;SDS011;39187;48.476;8.310;2023-03-03T19:22:26;47.80;;;26.87;;
53299;SDS011;39187;48.476;8.310;2023-03-03T19:25:16;47.10;;;27.00;;
53299;SDS011;39187;48.476;8.310;2023-03-03T19:39:03;53.07;;;30.57;;
53299;SDS011;39187;48.476;8.310;2023-03-03T19:50:06;55.90;;;31.50;;
53299;SDS011;39187;48.476;8.310;2023-03-03T19:55:43;47.60;;;30.77;;
53299;SDS011;39187;48.476;8.310;2023-03-03T20:03:53;73.47;;;38.53;;
53299;SDS011;39187;48.476;8.310;2023-03-03T20:06:24;62.83;;;32.47;;
53299;SDS011;39187;48.476;8.310;2023-03-03T20:11:49;56.97;;;32.30;;
53299;SDS011;39187;48.476;8.310;2023-03-03T20:14:44;59.60;;;32.30;;
53299;SDS011;39187;48.476;8.310;2023-03-03T20:17:19;57.73;;;31.07;;
53299;SDS011;39187;48.476;8.310;2023-03-03T20:22:42;71.30;;;31.23;;
53299;SDS011;39187;48.476;8.310;2023-03-03T20:25:49;62.00;;;29.57;;
53299;SDS011;39187;48.476;8.310;2023-03-03T20:37:30;61.33;;;31.10;;
53299;SDS011;39187;48.476;8.310;2023-03-03T20:40:23;61.97;;;32.23;;
53299;SDS011;39187;48.476;8.310;2023-03-03T20:43:20;66.47;;;32.70;;
53299;SDS011;39187;48.476;8.310;2023-03-03T20:46:12;66.00;;;33.73;;
53299;SDS011;39187;48.476;8.310;2023-03-03T20:49:10;66.07;;;32.60;;
53299;SDS011;39187;48.476;8.310;2023-03-03T20:52:02;62.47;;;33.47;;
53299;SDS011;39187;48.476;8.310;2023-03-03T21:03:09;63.43;;;34.23;;
53299;SDS011;39187;48.476;8.310;2023-03-03T21:05:31;60.33;;;36.17;;
53299;SDS011;39187;48.476;8.310;2023-03-03T21:10:30;64.60;;;33.23;;
53299;SDS011;39187;48.476;8.310;2023-03-03T21:16:02;58.87;;;31.37;;
53299;SDS011;39187;48.476;8.310;2023-03-03T21:18:34;62.73;;;33.53;;
53299;SDS011;39187;48.476;8.310;2023-03-03T21:20:59;72.93;;;35.87;;
53299;SDS011;39187;48.476;8.310;2023-03-03T21:23:25;64.10;;;36.00;;
53299;SDS011;39187;48.476;8.310;2023-03-03T21:25:52;61.83;;;34.00;;
53299;SDS011;39187;48.476;8.310;2023-03-03T21:28:29;67.93;;;37.37;;
53299;SDS011;39187;48.476;8.310;2023-03-03T21:36:03;64.27;;;36.57;;
53299;SDS011;39187;48.476;8.310;2023-03-03T21:38:34;65.30;;;35.70;;
53299;SDS011;39187;48.476;8.310;2023-03-03T21:41:01;64.43;;;35.10;;
53299;SDS011;39187;48.476;8.310;2023-03-03T21:43:34;62.43;;;32.27;;
53299;SDS011;39187;48.476;8.310;2023-03-03T21:46:02;79.47;;;37.73;;
53299;SDS011;39187;48.476;8.310;2023-03-03T21:48:28;64.93;;;35.00;;
53299;SDS011;39187;48.476;8.310;2023-03-03T21:50:53;72.40;;;37.80;;